Time;durP1;ratioP1;P1;durP2;ratioP2;P2;SDS_P1;SDS_P2;PMS_P1;PMS_P2;Temp;Humidity;BMP_temperature;BMP_pressure;BME280_temperature;BME280_humidity;BME280_pressure;Samples;Min_cycle;Max_cycle;Signal;HPM_P1;HPM_P2
2021/08/22 00:02:24;;;;;;;2.10;1.90;;;;;;;;;;5064347;28;20085;-58
2021/08/22 00:04:50;;;;;;;2.08;1.88;;;;;;;;;;5063027;28;20098;-58
2021/08/22 00:07:16;;;;;;;2.20;1.80;;;;;;;;;;5062831;28;20052;-59
2021/08/22 00:09:43;;;;;;;2.05;1.85;;;;;;;;;;5062384;28;20032;-59
2021/08/22 00:12:09;;;;;;;2.17;1.75;;;;;;;;;;5065226;28;20023;-59
2021/08/22 00:14:35;;;;;;;1.88;1.67;;;;;;;;;;5073632;28;20522;-58
2021/08/22 00:17:01;;;;;;;2.25;1.73;;;;;;;;;;5083118;28;20016;-57
2021/08/22 00:19:29;;;;;;;2.03;1.83;;;;;;;;;;5068282;28;20086;-58
2021/08/22 00:21:56;;;;;;;2.25;2.00;;;;;;;;;;5064082;28;20012;-57
2021/08/22 00:24:23;;;;;;;1.90;1.70;;;;;;;;;;5064154;28;20027;-58
2021/08/22 00:26:51;;;;;;;2.10;1.77;;;;;;;;;;5064034;28;20029;-58
2021/08/22 00:29:17;;;;;;;4.13;1.92;;;;;;;;;;5063578;28;20020;-58
2021/08/22 00:31:43;;;;;;;2.83;1.88;;;;;;;;;;5071438;28;20577;-58
2021/08/22 00:34:10;;;;;;;2.15;1.95;;;;;;;;;;5088963;28;20024;-58
2021/08/22 00:36:36;;;;;;;2.20;1.55;;;;;;;;;;5088799;28;20048;-58
2021/08/22 00:39:02;;;;;;;2.30;2.10;;;;;;;;;;5085455;28;20540;-57
2021/08/22 00:41:29;;;;;;;1.90;1.70;;;;;;;;;;5070202;28;20028;-57
2021/08/22 00:43:55;;;;;;;2.47;2.13;;;;;;;;;;5070329;28;20032;-57
2021/08/22 00:46:21;;;;;;;2.05;1.85;;;;;;;;;;5069563;28;20116;-57
2021/08/22 00:48:47;;;;;;;2.13;1.90;;;;;;;;;;5073377;28;20088;-57
2021/08/22 00:51:17;;;;;;;1.98;1.80;;;;;;;;;;5089067;28;20436;-57
2021/08/22 00:53:44;;;;;;;2.38;2.03;;;;;;;;;;5089666;28;20087;-57
2021/08/22 00:56:11;;;;;;;2.22;1.75;;;;;;;;;;5089828;28;20104;-57
2021/08/22 00:58:37;;;;;;;2.05;1.80;;;;;;;;;;5090506;28;20086;-57
2021/08/22 01:01:06;;;;;;;2.10;1.88;;;;;;;;;;5088547;28;20024;-57
2021/08/22 01:03:40;;;;;;;2.03;1.73;;;;;;;;;;5088291;28;20024;-57
2021/08/22 01:06:09;;;;;;;3.03;1.80;;;;;;;;;;5088359;28;20040;-57
2021/08/22 01:08:42;;;;;;;2.05;1.80;;;;;;;;;;5090006;28;20032;-57
2021/08/22 01:11:26;;;;;;;1.95;1.75;;;;;;;;;;5090126;28;20059;-57
2021/08/22 01:13:52;;;;;;;;;;;;;;;;;;5089453;28;20024;-58
2021/08/22 01:16:19;;;;;;;2.85;2.15;;;;;;;;;;5082054;28;19908;-57
2021/08/22 01:18:48;;;;;;;2.35;1.90;;;;;;;;;;5069248;28;20024;-57
2021/08/22 01:21:19;;;;;;;3.65;2.08;;;;;;;;;;5069119;28;20036;-57
2021/08/22 01:23:45;;;;;;;2.63;2.00;;;;;;;;;;5068854;28;20518;-57
2021/08/22 01:26:12;;;;;;;1.70;1.60;;;;;;;;;;5069184;28;20056;-57
2021/08/22 01:28:39;;;;;;;2.00;1.80;;;;;;;;;;5069874;28;20108;-57
2021/08/22 01:31:09;;;;;;;1.67;1.52;;;;;;;;;;5069395;28;20063;-57
2021/08/22 01:33:35;;;;;;;2.03;1.83;;;;;;;;;;5085527;28;20069;-57
2021/08/22 01:36:02;;;;;;;1.83;1.65;;;;;;;;;;5089328;28;20024;-57
2021/08/22 01:38:28;;;;;;;1.60;1.50;;;;;;;;;;5089239;28;20024;-57
2021/08/22 01:40:55;;;;;;;1.80;1.50;;;;;;;;;;5088643;28;20035;-58
2021/08/22 01:43:22;;;;;;;1.75;1.60;;;;;;;;;;5087570;28;20031;-57
2021/08/22 01:45:52;;;;;;;2.53;1.58;;;;;;;;;;5088496;28;20104;-57
2021/08/22 01:48:18;;;;;;;2.03;1.55;;;;;;;;;;5088737;28;20024;-57
2021/08/22 01:50:44;;;;;;;1.88;1.65;;;;;;;;;;5088824;28;20024;-57
2021/08/22 01:53:12;;;;;;;1.92;1.70;;;;;;;;;;5084164;28;20027;-57
2021/08/22 01:55:38;;;;;;;1.67;1.45;;;;;;;;;;5089473;28;20418;-57
2021/08/22 01:58:04;;;;;;;1.50;1.40;;;;;;;;;;5088581;28;20051;-57
2021/08/22 02:00:30;;;;;;;1.83;1.60;;;;;;;;;;5088770;28;20250;-57
2021/08/22 02:03:03;;;;;;;2.15;1.77;;;;;;;;;;5087059;28;20039;-57
2021/08/22 02:05:30;;;;;;;1.92;1.73;;;;;;;;;;5088215;28;20028;-57
2021/08/22 02:07:56;;;;;;;1.60;1.50;;;;;;;;;;5088748;28;20051;-57
2021/08/22 02:10:26;;;;;;;2.25;1.45;;;;;;;;;;5088748;28;20038;-57
2021/08/22 02:12:53;;;;;;;1.65;1.55;;;;;;;;;;5085458;28;20043;-57
2021/08/22 02:15:22;;;;;;;1.88;1.65;;;;;;;;;;5068179;28;20367;-57
2021/08/22 02:17:54;;;;;;;1.52;1.42;;;;;;;;;;5068166;28;20016;-57
2021/08/22 02:20:20;;;;;;;1.80;1.70;;;;;;;;;;5068121;28;20067;-57
2021/08/22 02:22:47;;;;;;;1.70;1.60;;;;;;;;;;5068332;28;20567;-57
2021/08/22 02:25:14;;;;;;;2.22;1.85;;;;;;;;;;5084909;28;20074;-57
2021/08/22 02:27:42;;;;;;;2.15;1.67;;;;;;;;;;5088350;28;20517;-57
2021/08/22 02:30:08;;;;;;;2.15;1.80;;;;;;;;;;5088310;28;20059;-57
2021/08/22 02:32:34;;;;;;;2.13;1.77;;;;;;;;;;5088216;28;20020;-57
2021/08/22 02:35:00;;;;;;;1.73;1.60;;;;;;;;;;5076986;28;20600;-57
2021/08/22 02:37:28;;;;;;;1.85;1.65;;;;;;;;;;5067944;28;20029;-57
2021/08/22 02:39:55;;;;;;;1.80;1.70;;;;;;;;;;5067728;28;20040;-57
2021/08/22 02:42:21;;;;;;;2.33;1.58;;;;;;;;;;5067293;28;20529;-57
2021/08/22 02:44:47;;;;;;;1.60;1.50;;;;;;;;;;5074972;28;20108;-57
2021/08/22 02:47:14;;;;;;;1.98;1.77;;;;;;;;;;5087323;28;20047;-57
2021/08/22 02:49:40;;;;;;;1.88;1.65;;;;;;;;;;5087786;28;20039;-57
2021/08/22 02:52:07;;;;;;;1.67;1.58;;;;;;;;;;5088255;28;20507;-57
2021/08/22 02:54:33;;;;;;;1.80;1.70;;;;;;;;;;5086736;28;20153;-57
2021/08/22 02:56:59;;;;;;;1.83;1.73;;;;;;;;;;5087412;28;20388;-57
2021/08/22 02:59:25;;;;;;;1.75;1.63;;;;;;;;;;5085784;28;20063;-57
2021/08/22 03:01:51;;;;;;;1.70;1.60;;;;;;;;;;5087515;28;20031;-57
2021/08/22 03:04:17;;;;;;;1.88;1.77;;;;;;;;;;5086438;28;20458;-57
2021/08/22 03:06:43;;;;;;;1.80;1.67;;;;;;;;;;5087218;28;20380;-57
2021/08/22 03:09:09;;;;;;;1.55;1.42;;;;;;;;;;5087702;28;20024;-57
2021/08/22 03:11:35;;;;;;;2.42;1.90;;;;;;;;;;5087879;28;20356;-57
2021/08/22 03:14:01;;;;;;;2.33;1.90;;;;;;;;;;5085888;28;20028;-57
2021/08/22 03:16:28;;;;;;;1.65;1.55;;;;;;;;;;5087186;28;20030;-57
2021/08/22 03:18:54;;;;;;;1.95;1.73;;;;;;;;;;5087241;28;20024;-57
2021/08/22 03:21:20;;;;;;;1.80;1.50;;;;;;;;;;5087008;28;20077;-57
2021/08/22 03:23:46;;;;;;;1.98;1.73;;;;;;;;;;5087195;28;20036;-57
2021/08/22 03:26:12;;;;;;;2.10;1.77;;;;;;;;;;5067641;28;20020;-57
2021/08/22 03:28:38;;;;;;;1.92;1.67;;;;;;;;;;5067367;28;20033;-57
2021/08/22 03:31:04;;;;;;;1.73;1.42;;;;;;;;;;5066465;28;20074;-57
2021/08/22 03:33:31;;;;;;;1.70;1.60;;;;;;;;;;5066861;28;20024;-57
2021/08/22 03:35:57;;;;;;;1.65;1.55;;;;;;;;;;5066098;28;20399;-57
2021/08/22 03:38:23;;;;;;;1.60;1.50;;;;;;;;;;5066558;28;20028;-58
2021/08/22 03:40:49;;;;;;;2.50;1.95;;;;;;;;;;5066842;28;20020;-57
2021/08/22 03:43:15;;;;;;;1.58;1.48;;;;;;;;;;5065849;28;20495;-57
2021/08/22 03:45:41;;;;;;;2.15;1.70;;;;;;;;;;5065871;28;20460;-57
2021/08/22 03:48:07;;;;;;;1.80;1.70;;;;;;;;;;5067020;28;20036;-57
2021/08/22 03:50:33;;;;;;;1.88;1.70;;;;;;;;;;5066755;28;20116;-57
2021/08/22 03:53:00;;;;;;;1.90;1.60;;;;;;;;;;5066477;28;20029;-58
2021/08/22 03:55:26;;;;;;;1.75;1.65;;;;;;;;;;5080212;28;20020;-57
2021/08/22 03:57:52;;;;;;;2.13;1.90;;;;;;;;;;5086476;28;20047;-57
2021/08/22 04:00:18;;;;;;;2.78;1.80;;;;;;;;;;5086415;28;20020;-57
2021/08/22 04:02:44;;;;;;;1.92;1.77;;;;;;;;;;5086967;28;20055;-57
2021/08/22 04:05:12;;;;;;;1.70;1.60;;;;;;;;;;5086142;28;20483;-57
2021/08/22 04:07:44;;;;;;;2.00;1.55;;;;;;;;;;5086337;28;20032;-57
2021/08/22 04:10:10;;;;;;;2.03;1.83;;;;;;;;;;5085828;28;20158;-57
2021/08/22 04:12:36;;;;;;;3.55;2.03;;;;;;;;;;5086639;28;20533;-57
2021/08/22 04:15:02;;;;;;;2.05;1.83;;;;;;;;;;5085230;28;20031;-57
2021/08/22 04:17:28;;;;;;;2.00;1.55;;;;;;;;;;5086545;28;20024;-57
2021/08/22 04:19:54;;;;;;;1.95;1.80;;;;;;;;;;5086627;28;20608;-57
2021/08/22 04:22:20;;;;;;;1.67;1.50;;;;;;;;;;5086187;28;20032;-57
2021/08/22 04:24:46;;;;;;;1.60;1.50;;;;;;;;;;5085582;28;20114;-57
2021/08/22 04:27:13;;;;;;;1.77;1.67;;;;;;;;;;5086114;28;20032;-57
2021/08/22 04:29:39;;;;;;;2.65;1.30;;;;;;;;;;5086965;28;20435;-57
2021/08/22 04:32:06;;;;;;;1.40;1.30;;;;;;;;;;5087135;28;20028;-58
2021/08/22 04:34:32;;;;;;;1.92;1.65;;;;;;;;;;5084543;28;20107;-57
2021/08/22 04:36:58;;;;;;;1.55;1.35;;;;;;;;;;5082598;28;20028;-58
2021/08/22 04:39:24;;;;;;;1.48;1.38;;;;;;;;;;5066214;28;20376;-58
2021/08/22 04:41:51;;;;;;;1.25;1.15;;;;;;;;;;5066251;28;20047;-57
2021/08/22 04:44:17;;;;;;;1.10;1.02;;;;;;;;;;5064421;28;20047;-57
2021/08/22 04:46:43;;;;;;;1.83;1.33;;;;;;;;;;5079539;28;20039;-57
2021/08/22 04:49:10;;;;;;;1.38;1.27;;;;;;;;;;5066391;28;20487;-57
2021/08/22 04:51:36;;;;;;;1.48;1.30;;;;;;;;;;5066586;28;20032;-57
2021/08/22 04:54:02;;;;;;;1.17;1.08;;;;;;;;;;5065846;28;20028;-57
2021/08/22 04:56:28;;;;;;;1.73;1.48;;;;;;;;;;5066100;28;20029;-58
2021/08/22 04:58:54;;;;;;;1.30;1.20;;;;;;;;;;5082675;28;20071;-58
2021/08/22 05:01:20;;;;;;;1.48;1.38;;;;;;;;;;5085985;28;20036;-58
2021/08/22 05:03:47;;;;;;;1.30;1.20;;;;;;;;;;5086143;28;20032;-58
2021/08/22 05:06:13;;;;;;;1.48;1.30;;;;;;;;;;5085555;28;20028;-58
2021/08/22 05:08:39;;;;;;;1.55;1.27;;;;;;;;;;5075919;28;20032;-58
2021/08/22 05:11:05;;;;;;;1.33;1.17;;;;;;;;;;5085265;28;20077;-58
2021/08/22 05:13:36;;;;;;;1.63;1.30;;;;;;;;;;5085260;28;20116;-58
2021/08/22 05:16:04;;;;;;;1.38;1.27;;;;;;;;;;5086140;28;20048;-57
2021/08/22 05:18:30;;;;;;;1.30;1.20;;;;;;;;;;5084838;28;20483;-57
2021/08/22 05:20:56;;;;;;;2.05;1.50;;;;;;;;;;5087448;28;20797;-57
2021/08/22 05:23:22;;;;;;;1.75;1.30;;;;;;;;;;5070332;28;20499;-57
2021/08/22 05:25:48;;;;;;;1.30;1.20;;;;;;;;;;5069419;28;20036;-57
2021/08/22 05:28:14;;;;;;;1.20;1.10;;;;;;;;;;5069226;28;20033;-57
2021/08/22 05:30:40;;;;;;;1.50;1.30;;;;;;;;;;5069639;28;20442;-57
2021/08/22 05:33:06;;;;;;;1.48;1.38;;;;;;;;;;5078907;28;20054;-57
2021/08/22 05:35:32;;;;;;;1.45;1.35;;;;;;;;;;5089752;28;20494;-58
2021/08/22 05:37:58;;;;;;;1.45;1.35;;;;;;;;;;5087608;28;20402;-58
2021/08/22 05:40:24;;;;;;;1.83;1.50;;;;;;;;;;5089203;28;20103;-57
2021/08/22 05:42:50;;;;;;;1.63;1.50;;;;;;;;;;5071872;28;20036;-58
2021/08/22 05:45:17;;;;;;;1.50;1.40;;;;;;;;;;5068637;28;20040;-58
2021/08/22 05:47:43;;;;;;;1.38;1.20;;;;;;;;;;5074360;28;20047;-57
2021/08/22 05:50:09;;;;;;;1.80;1.63;;;;;;;;;;5088040;28;20483;-58
2021/08/22 05:52:38;;;;;;;1.77;1.40;;;;;;;;;;5075071;28;20099;-58
2021/08/22 05:55:08;;;;;;;1.60;1.30;;;;;;;;;;5069001;28;20016;-58
2021/08/22 05:57:34;;;;;;;1.52;1.42;;;;;;;;;;5088535;28;20044;-58
2021/08/22 06:00:00;;;;;;;1.33;1.23;;;;;;;;;;5087794;28;20039;-57
2021/08/22 06:02:26;;;;;;;1.58;1.30;;;;;;;;;;5086956;28;20103;-57
2021/08/22 06:04:53;;;;;;;1.42;1.30;;;;;;;;;;5089093;28;20119;-57
2021/08/22 06:07:20;;;;;;;1.45;1.27;;;;;;;;;;5086239;28;20028;-58
2021/08/22 06:09:47;;;;;;;1.33;1.15;;;;;;;;;;5088810;28;20031;-59
2021/08/22 06:12:13;;;;;;;1.70;1.60;;;;;;;;;;5077101;28;20036;-59
2021/08/22 06:14:39;;;;;;;1.80;1.60;;;;;;;;;;5068905;28;20383;-59
2021/08/22 06:17:05;;;;;;;1.33;1.23;;;;;;;;;;5068964;28;20024;-59
2021/08/22 06:19:31;;;;;;;1.23;1.13;;;;;;;;;;5068420;28;20379;-58
2021/08/22 06:21:57;;;;;;;1.50;1.40;;;;;;;;;;5069331;28;20555;-58
2021/08/22 06:24:23;;;;;;;1.48;1.10;;;;;;;;;;5068200;28;20475;-59
2021/08/22 06:26:49;;;;;;;1.33;1.17;;;;;;;;;;5079013;28;20399;-58
2021/08/22 06:29:15;;;;;;;2.22;1.10;;;;;;;;;;5087867;28;20534;-59
2021/08/22 06:31:41;;;;;;;1.98;1.00;;;;;;;;;;5074839;28;20020;-58
2021/08/22 06:34:09;;;;;;;1.52;1.40;;;;;;;;;;5089010;28;20058;-59
2021/08/22 06:36:39;;;;;;;1.30;1.20;;;;;;;;;;5086858;28;20061;-59
2021/08/22 06:39:09;;;;;;;1.35;1.25;;;;;;;;;;5075463;28;20487;-59
2021/08/22 06:41:35;;;;;;;1.40;1.25;;;;;;;;;;5076843;28;20025;-59
2021/08/22 06:44:02;;;;;;;1.58;1.40;;;;;;;;;;5071758;28;20032;-59
2021/08/22 06:46:28;;;;;;;1.45;1.20;;;;;;;;;;5088938;28;20024;-59
2021/08/22 06:48:54;;;;;;;1.17;1.08;;;;;;;;;;5079495;28;20035;-59
2021/08/22 06:51:21;;;;;;;1.90;1.50;;;;;;;;;;5077911;28;20028;-59
2021/08/22 06:53:47;;;;;;;1.40;1.30;;;;;;;;;;5102409;28;20510;-59
2021/08/22 06:56:13;;;;;;;1.33;1.23;;;;;;;;;;5102876;27;20020;-59
2021/08/22 06:58:39;;;;;;;1.25;1.15;;;;;;;;;;5089049;28;20040;-59
2021/08/22 07:01:05;;;;;;;1.80;1.08;;;;;;;;;;5087324;28;20059;-59
2021/08/22 07:03:32;;;;;;;1.17;1.08;;;;;;;;;;5088662;28;20031;-59
2021/08/22 07:05:58;;;;;;;1.55;1.20;;;;;;;;;;5067453;28;20172;-59
2021/08/22 07:08:24;;;;;;;1.17;1.08;;;;;;;;;;5068294;28;20035;-59
2021/08/22 07:10:50;;;;;;;1.48;1.20;;;;;;;;;;5068158;28;20036;-59
2021/08/22 07:13:16;;;;;;;2.17;1.10;;;;;;;;;;5086306;28;20028;-59
2021/08/22 07:15:42;;;;;;;1.20;1.10;;;;;;;;;;5087378;28;20056;-59
2021/08/22 07:18:08;;;;;;;1.35;1.25;;;;;;;;;;5083716;28;20491;-59
2021/08/22 07:20:35;;;;;;;1.10;1.00;;;;;;;;;;5072393;28;20035;-59
2021/08/22 07:23:01;;;;;;;1.60;1.20;;;;;;;;;;5069476;28;20044;-59
2021/08/22 07:25:28;;;;;;;1.00;0.90;;;;;;;;;;5080115;28;20067;-59
2021/08/22 07:27:54;;;;;;;1.10;1.00;;;;;;;;;;5067692;28;20040;-59
2021/08/22 07:30:22;;;;;;;1.25;1.15;;;;;;;;;;5076154;28;20035;-59
2021/08/22 07:32:48;;;;;;;1.45;0.90;;;;;;;;;;5079789;28;20418;-59
2021/08/22 07:35:14;;;;;;;1.20;1.10;;;;;;;;;;5079840;28;20106;-59
2021/08/22 07:37:40;;;;;;;0.80;0.80;;;;;;;;;;5087046;28;20514;-59
2021/08/22 07:40:06;;;;;;;1.05;1.00;;;;;;;;;;5085320;28;20032;-58
2021/08/22 07:42:32;;;;;;;0.98;0.88;;;;;;;;;;5085977;28;20457;-59
2021/08/22 07:44:58;;;;;;;1.17;1.00;;;;;;;;;;5079807;28;20036;-59
2021/08/22 07:47:25;;;;;;;1.13;1.02;;;;;;;;;;5070099;28;20103;-59
2021/08/22 07:49:51;;;;;;;1.20;1.00;;;;;;;;;;5076838;28;20032;-59
2021/08/22 07:52:17;;;;;;;1.23;1.13;;;;;;;;;;5083505;28;20063;-59
2021/08/22 07:54:43;;;;;;;1.40;1.20;;;;;;;;;;5077079;28;20462;-59
2021/08/22 07:57:10;;;;;;;0.80;0.80;;;;;;;;;;5084753;28;20103;-59
2021/08/22 07:59:36;;;;;;;0.95;0.85;;;;;;;;;;5083481;28;20407;-59
2021/08/22 08:02:03;;;;;;;0.90;0.90;;;;;;;;;;5070561;28;20084;-59
2021/08/22 08:04:30;;;;;;;1.23;1.10;;;;;;;;;;5066385;28;20039;-59
2021/08/22 08:06:56;;;;;;;1.10;1.00;;;;;;;;;;5082656;28;20499;-59
2021/08/22 08:09:22;;;;;;;0.98;0.98;;;;;;;;;;5067347;28;20132;-59
2021/08/22 08:11:49;;;;;;;1.10;1.00;;;;;;;;;;5068693;28;20565;-59
2021/08/22 08:14:15;;;;;;;1.30;1.17;;;;;;;;;;5079147;28;20020;-59
2021/08/22 08:16:41;;;;;;;0.82;0.77;;;;;;;;;;5070079;28;20364;-59
2021/08/22 08:19:07;;;;;;;0.80;0.80;;;;;;;;;;5072339;28;20027;-59
2021/08/22 08:21:33;;;;;;;1.15;1.05;;;;;;;;;;5078512;28;20044;-59
2021/08/22 08:23:59;;;;;;;1.33;1.10;;;;;;;;;;5086129;28;20032;-60
2021/08/22 08:26:26;;;;;;;0.80;0.80;;;;;;;;;;5086234;28;20032;-59
2021/08/22 08:28:52;;;;;;;0.80;0.80;;;;;;;;;;5085600;28;20037;-59
2021/08/22 08:31:18;;;;;;;1.35;1.00;;;;;;;;;;5085720;28;20107;-60
2021/08/22 08:33:44;;;;;;;1.20;1.00;;;;;;;;;;5071811;28;20104;-60
2021/08/22 08:36:10;;;;;;;1.50;1.10;;;;;;;;;;5066408;28;20404;-60
2021/08/22 08:38:36;;;;;;;0.80;0.80;;;;;;;;;;5081986;28;20103;-59
2021/08/22 08:41:02;;;;;;;0.90;0.90;;;;;;;;;;5075119;28;20150;-59
2021/08/22 08:43:28;;;;;;;1.05;0.95;;;;;;;;;;5065967;28;20025;-59
2021/08/22 08:45:59;;;;;;;0.80;0.80;;;;;;;;;;5066030;28;20035;-59
2021/08/22 08:48:26;;;;;;;0.80;0.80;;;;;;;;;;5065921;28;20036;-59
2021/08/22 08:50:55;;;;;;;0.88;0.80;;;;;;;;;;5067553;28;20505;-59
2021/08/22 08:53:23;;;;;;;1.13;0.90;;;;;;;;;;5072123;28;20028;-59
2021/08/22 08:55:53;;;;;;;0.90;0.90;;;;;;;;;;5069038;28;20039;-59
2021/08/22 08:58:19;;;;;;;0.82;0.82;;;;;;;;;;5080266;28;20081;-60
2021/08/22 09:00:46;;;;;;;0.90;0.90;;;;;;;;;;5071157;28;20546;-59
2021/08/22 09:03:16;;;;;;;1.10;1.00;;;;;;;;;;5067667;28;20025;-59
2021/08/22 09:06:11;;;;;;;0.80;0.80;;;;;;;;;;5069266;28;20138;-59
2021/08/22 09:08:43;;;;;;;0.73;0.70;;;;;;;;;;5066270;28;20052;-60
2021/08/22 09:11:12;;;;;;;1.45;1.10;;;;;;;;;;5069146;28;20035;-60
2021/08/22 09:13:57;;;;;;;1.10;1.00;;;;;;;;;;5071184;28;20054;-59
2021/08/22 09:16:42;;;;;;;1.63;1.00;;;;;;;;;;5080396;28;20060;-60
2021/08/22 09:19:19;;;;;;;0.95;0.80;;;;;;;;;;5069430;28;20020;-59
2021/08/22 09:21:55;;;;;;;0.95;0.95;;;;;;;;;;5066857;28;20111;-59
2021/08/22 09:24:40;;;;;;;0.90;0.90;;;;;;;;;;5073760;28;20144;-59
2021/08/22 09:27:26;;;;;;;1.60;0.90;;;;;;;;;;5078420;28;20050;-59
2021/08/22 09:30:12;;;;;;;0.77;0.77;;;;;;;;;;5086977;28;20059;-59
2021/08/22 09:32:56;;;;;;;0.93;0.82;;;;;;;;;;5083332;28;20025;-59
2021/08/22 09:35:41;;;;;;;0.80;0.80;;;;;;;;;;5069329;28;20029;-59
2021/08/22 09:38:08;;;;;;;1.10;0.70;;;;;;;;;;5077660;28;20023;-59
2021/08/22 09:40:54;;;;;;;1.65;1.30;;;;;;;;;;5089154;28;20028;-59
2021/08/22 09:43:39;;;;;;;0.93;0.82;;;;;;;;;;5087756;28;20028;-59
2021/08/22 09:46:24;;;;;;;1.27;1.00;;;;;;;;;;5073091;28;20051;-59
2021/08/22 09:49:08;;;;;;;1.05;0.80;;;;;;;;;;5081631;28;20039;-59
2021/08/22 09:51:34;;;;;;;;;;;;;;;;;;5087182;28;20197;-59
2021/08/22 09:54:20;;;;;;;0.98;0.90;;;;;;;;;;5080044;28;20400;-60
2021/08/22 09:56:49;;;;;;;0.88;0.70;;;;;;;;;;5072829;28;20027;-60
2021/08/22 09:59:15;;;;;;;1.65;1.13;;;;;;;;;;5080104;28;20117;-60
2021/08/22 10:02:00;;;;;;;1.10;0.90;;;;;;;;;;5077993;28;20151;-60
2021/08/22 10:04:29;;;;;;;1.05;0.90;;;;;;;;;;5087048;28;20414;-60
2021/08/22 10:06:56;;;;;;;0.95;0.93;;;;;;;;;;5088401;28;20056;-60
2021/08/22 10:09:24;;;;;;;0.88;0.88;;;;;;;;;;5078657;28;20398;-60
2021/08/22 10:12:03;;;;;;;1.10;0.98;;;;;;;;;;5067746;28;20047;-59
2021/08/22 10:14:29;;;;;;;0.77;0.77;;;;;;;;;;5082760;28;20329;-60
2021/08/22 10:16:56;;;;;;;0.60;0.60;;;;;;;;;;5083631;28;20094;-59
2021/08/22 10:19:28;;;;;;;0.80;0.80;;;;;;;;;;5075048;28;20502;-59
2021/08/22 10:22:16;;;;;;;0.63;0.63;;;;;;;;;;5088475;28;20081;-60
2021/08/22 10:24:43;;;;;;;0.60;0.60;;;;;;;;;;5076184;28;20552;-59
2021/08/22 10:27:11;;;;;;;0.63;0.60;;;;;;;;;;5075875;28;20031;-59
2021/08/22 10:29:50;;;;;;;0.70;0.70;;;;;;;;;;5075654;28;20032;-59
2021/08/22 10:32:16;;;;;;;0.68;0.68;;;;;;;;;;5070103;28;20036;-59
2021/08/22 10:34:47;;;;;;;1.00;0.90;;;;;;;;;;5072398;28;20049;-59
2021/08/22 10:37:24;;;;;;;0.52;0.50;;;;;;;;;;5067922;28;20033;-59
2021/08/22 10:39:51;;;;;;;0.60;0.60;;;;;;;;;;5069027;28;20043;-60
2021/08/22 10:42:20;;;;;;;0.80;0.80;;;;;;;;;;5086260;28;20039;-60
2021/08/22 10:44:46;;;;;;;1.20;0.88;;;;;;;;;;5077041;28;20501;-60
2021/08/22 10:47:14;;;;;;;0.57;0.57;;;;;;;;;;5087872;28;20032;-59
2021/08/22 10:49:55;;;;;;;0.73;0.73;;;;;;;;;;5088917;28;20550;-60
2021/08/22 10:52:24;;;;;;;0.77;0.73;;;;;;;;;;5080141;28;20024;-60
2021/08/22 10:55:08;;;;;;;0.68;0.68;;;;;;;;;;5076518;28;20060;-59
2021/08/22 10:57:43;;;;;;;0.80;0.80;;;;;;;;;;5086313;28;20034;-59
2021/08/22 11:00:29;;;;;;;1.00;0.80;;;;;;;;;;5087305;28;20131;-60
2021/08/22 11:03:29;;;;;;;0.82;0.82;;;;;;;;;;5074914;28;20055;-60
2021/08/22 11:05:55;;;;;;;1.42;1.02;;;;;;;;;;5075739;28;20039;-60
2021/08/22 11:08:23;;;;;;;0.88;0.88;;;;;;;;;;5077796;28;21560;-60
2021/08/22 11:10:58;;;;;;;1.30;1.17;;;;;;;;;;5076649;28;20178;-60
2021/08/22 11:13:25;;;;;;;1.13;1.02;;;;;;;;;;5079621;28;20035;-60
2021/08/22 11:15:52;;;;;;;0.98;0.88;;;;;;;;;;5078290;28;20887;-60
2021/08/22 11:18:18;;;;;;;0.93;0.88;;;;;;;;;;5068019;28;20063;-60
2021/08/22 11:20:45;;;;;;;0.90;0.90;;;;;;;;;;5078197;28;20120;-60
2021/08/22 11:23:18;;;;;;;0.90;0.90;;;;;;;;;;5072026;28;20036;-60
2021/08/22 11:25:45;;;;;;;1.10;1.00;;;;;;;;;;5080684;28;20024;-60
2021/08/22 11:28:12;;;;;;;1.13;1.02;;;;;;;;;;5084001;28;20396;-59
2021/08/22 11:30:40;;;;;;;1.40;1.30;;;;;;;;;;5080708;28;20036;-59
2021/08/22 11:33:07;;;;;;;1.35;1.10;;;;;;;;;;5076643;28;20032;-60
2021/08/22 11:35:37;;;;;;;1.20;1.10;;;;;;;;;;5070430;28;20024;-60
2021/08/22 11:38:05;;;;;;;1.20;1.10;;;;;;;;;;5081261;28;20032;-60
2021/08/22 11:40:32;;;;;;;1.25;1.02;;;;;;;;;;5077027;28;20470;-61
2021/08/22 11:42:59;;;;;;;1.50;1.35;;;;;;;;;;5078371;28;20033;-60
2021/08/22 11:45:27;;;;;;;0.93;0.88;;;;;;;;;;5063835;28;20116;-56
2021/08/22 11:47:54;;;;;;;1.02;1.00;;;;;;;;;;5077598;28;20263;-55
2021/08/22 11:50:21;;;;;;;1.13;1.02;;;;;;;;;;5075533;28;20048;-55
2021/08/22 11:52:49;;;;;;;0.85;0.82;;;;;;;;;;5067539;28;20033;-56
2021/08/22 11:55:16;;;;;;;1.13;1.02;;;;;;;;;;5071591;28;20108;-55
2021/08/22 11:57:42;;;;;;;1.40;1.30;;;;;;;;;;5070087;28;20027;-55
2021/08/22 12:00:17;;;;;;;1.55;1.05;;;;;;;;;;5073974;28;20135;-55
2021/08/22 12:02:56;;;;;;;1.40;1.30;;;;;;;;;;5069829;28;20031;-55
2021/08/22 12:05:25;;;;;;;1.30;1.20;;;;;;;;;;5071677;28;20515;-55
2021/08/22 12:08:01;;;;;;;1.50;1.33;;;;;;;;;;5069995;28;20043;-55
2021/08/22 12:10:28;;;;;;;1.88;1.50;;;;;;;;;;5069487;28;20051;-55
2021/08/22 12:12:55;;;;;;;1.20;1.10;;;;;;;;;;5079836;28;20040;-54
2021/08/22 12:15:32;;;;;;;1.20;1.10;;;;;;;;;;5076755;28;20032;-56
2021/08/22 12:18:17;;;;;;;1.27;1.17;;;;;;;;;;5070470;28;20507;-56
2021/08/22 12:20:44;;;;;;;1.50;1.35;;;;;;;;;;5080208;28;20032;-57
2021/08/22 12:23:11;;;;;;;1.60;1.50;;;;;;;;;;5070331;28;20038;-56
2021/08/22 12:25:40;;;;;;;1.42;1.25;;;;;;;;;;5081742;28;20120;-56
2021/08/22 12:28:22;;;;;;;1.20;0.98;;;;;;;;;;5071292;28;20395;-55
2021/08/22 12:30:49;;;;;;;0.90;0.90;;;;;;;;;;5073641;28;20023;-54
2021/08/22 12:33:32;;;;;;;1.08;0.90;;;;;;;;;;5074896;28;20359;-56
2021/08/22 12:36:07;;;;;;;1.25;1.15;;;;;;;;;;5072214;28;20433;-55
2021/08/22 12:38:45;;;;;;;1.25;1.15;;;;;;;;;;5079508;28;20028;-55
2021/08/22 12:41:34;;;;;;;1.20;1.10;;;;;;;;;;5072539;28;20024;-54
2021/08/22 12:44:02;;;;;;;1.58;1.13;;;;;;;;;;5081598;28;20409;-55
2021/08/22 12:46:30;;;;;;;0.95;0.90;;;;;;;;;;5083692;28;20042;-56
2021/08/22 12:48:57;;;;;;;1.35;1.10;;;;;;;;;;5084564;28;20123;-54
2021/08/22 12:51:25;;;;;;;1.30;1.20;;;;;;;;;;5089341;28;20028;-54
2021/08/22 12:53:53;;;;;;;1.10;1.00;;;;;;;;;;5079237;28;20046;-53
2021/08/22 12:56:20;;;;;;;1.30;1.17;;;;;;;;;;5067727;28;20525;-55
2021/08/22 12:58:46;;;;;;;1.20;1.10;;;;;;;;;;5072635;28;20032;-55
2021/08/22 13:01:13;;;;;;;1.50;1.30;;;;;;;;;;5088677;28;20020;-52
2021/08/22 13:03:40;;;;;;;1.73;1.10;;;;;;;;;;5076436;28;20028;-55
2021/08/22 13:06:06;;;;;;;1.83;1.23;;;;;;;;;;5087759;28;20031;-54
2021/08/22 13:08:32;;;;;;;1.40;1.30;;;;;;;;;;5085730;28;20105;-55
2021/08/22 13:10:58;;;;;;;1.20;1.10;;;;;;;;;;5075429;28;20028;-55
2021/08/22 13:13:24;;;;;;;1.30;1.20;;;;;;;;;;5088887;28;20024;-54
2021/08/22 13:15:50;;;;;;;1.20;1.10;;;;;;;;;;5089031;28;20433;-55
2021/08/22 13:18:16;;;;;;;2.78;0.95;;;;;;;;;;5089748;28;20028;-55
2021/08/22 13:20:42;;;;;;;0.98;0.98;;;;;;;;;;5088690;28;20031;-54
2021/08/22 13:23:08;;;;;;;1.50;1.40;;;;;;;;;;5077286;28;20040;-52
2021/08/22 13:25:35;;;;;;;0.90;0.90;;;;;;;;;;5069322;28;20059;-55
2021/08/22 13:28:02;;;;;;;1.05;0.98;;;;;;;;;;5083474;28;20057;-53
2021/08/22 13:30:28;;;;;;;1.08;1.00;;;;;;;;;;5085682;28;20024;-53
2021/08/22 13:32:54;;;;;;;1.23;1.13;;;;;;;;;;5086252;28;20036;-53
2021/08/22 13:35:20;;;;;;;1.00;1.00;;;;;;;;;;5084095;28;20755;-53
2021/08/22 13:37:46;;;;;;;1.02;0.93;;;;;;;;;;5068586;28;20048;-55
2021/08/22 13:40:13;;;;;;;1.33;1.23;;;;;;;;;;5065385;28;20495;-54
2021/08/22 13:42:39;;;;;;;0.90;0.90;;;;;;;;;;5069121;28;20364;-54
2021/08/22 13:45:07;;;;;;;1.60;1.48;;;;;;;;;;5068530;28;20589;-54
2021/08/22 13:47:33;;;;;;;1.40;1.30;;;;;;;;;;5086678;28;20092;-53
2021/08/22 13:49:59;;;;;;;1.35;1.25;;;;;;;;;;5086996;28;20024;-52
2021/08/22 13:52:25;;;;;;;1.60;1.30;;;;;;;;;;5088640;28;20054;-54
2021/08/22 13:54:51;;;;;;;1.23;1.13;;;;;;;;;;5085968;28;20399;-52
2021/08/22 13:57:17;;;;;;;1.00;1.00;;;;;;;;;;5066370;28;20524;-55
2021/08/22 13:59:43;;;;;;;1.20;1.10;;;;;;;;;;5066317;28;20812;-54
2021/08/22 14:02:09;;;;;;;0.98;0.88;;;;;;;;;;5066813;28;20526;-55
2021/08/22 14:04:35;;;;;;;1.00;0.90;;;;;;;;;;5069011;28;20570;-54
2021/08/22 14:07:02;;;;;;;1.25;0.98;;;;;;;;;;5083689;28;20105;-55
2021/08/22 14:09:28;;;;;;;0.95;0.95;;;;;;;;;;5075270;28;20040;-53
2021/08/22 14:11:54;;;;;;;1.30;1.05;;;;;;;;;;5068603;28;20379;-54
2021/08/22 14:14:20;;;;;;;1.17;1.00;;;;;;;;;;5067515;28;20103;-54
2021/08/22 14:16:46;;;;;;;1.45;0.90;;;;;;;;;;5066429;28;20037;-54
2021/08/22 14:19:12;;;;;;;1.08;0.98;;;;;;;;;;5067439;28;20533;-53
2021/08/22 14:21:38;;;;;;;0.90;0.90;;;;;;;;;;5050235;28;20688;-54
2021/08/22 14:24:07;;;;;;;1.98;0.90;;;;;;;;;;5066546;28;20140;-53
2021/08/22 14:26:33;;;;;;;0.98;0.90;;;;;;;;;;5067774;28;20107;-52
2021/08/22 14:28:59;;;;;;;0.80;0.80;;;;;;;;;;5075420;28;20582;-55
2021/08/22 14:31:25;;;;;;;0.82;0.82;;;;;;;;;;5086109;28;20443;-54
2021/08/22 14:33:51;;;;;;;0.90;0.90;;;;;;;;;;5087995;28;20100;-53
2021/08/22 14:36:17;;;;;;;1.13;0.90;;;;;;;;;;5069287;28;20686;-52
2021/08/22 14:38:43;;;;;;;1.13;0.90;;;;;;;;;;5084382;28;20107;-53
2021/08/22 14:41:09;;;;;;;1.05;0.90;;;;;;;;;;5068978;28;20369;-55
2021/08/22 14:43:36;;;;;;;1.00;1.00;;;;;;;;;;5067716;28;20133;-51
2021/08/22 14:46:02;;;;;;;1.35;1.10;;;;;;;;;;5065784;28;20110;-54
2021/08/22 14:48:28;;;;;;;0.93;0.90;;;;;;;;;;5070401;28;20434;-53
2021/08/22 14:50:54;;;;;;;1.27;1.13;;;;;;;;;;5073513;28;20154;-53